Flight Track Log - Related Links

Times and Time Zones

All times are in EDT time to prevent confusion due to time zone crossing. See the GJS3649 flight status page for this flight to view local times or setup timezone preferences in your user account.

Time Position Orientation Groundspeed Altitude Reporting Facility
EDT Latitude Longitude Course Direction KTS MPH feet Rate Location/Type
Sat 05:16:05 PM 38.9667 -77.5167 311° West 177 204 1,900  Level Potomac TRACON
Sat 05:16:59 PM 39.0000 -77.5667 311° West 217 250 3,800 2,053 Climbing Potomac TRACON
Sat 05:17:59 PM 39.0667 -77.6000 339° North 272 313 5,800 2,238 Climbing Potomac TRACON
Sat 05:19:05 PM 39.1500 -77.6167 351° North 291 335 8,500 2,116 Climbing Potomac TRACON
Sat 05:20:52 PM 39.2969 -77.5897 North 322 371 11,900 1,704 Climbing Washington Center
Sat 05:21:54 PM 39.3956 -77.5600 13° North 337 388 13,300 1,339 Climbing Washington Center
Sat 05:22:53 PM 39.4953 -77.5736 354° North 350 403 14,600 1,373 Climbing Washington Center
Sat 05:23:52 PM 39.5244 -77.7008 287° West 296 341 16,000 1,664 Climbing Washington Center
Sat 05:24:52 PM 39.5367 -77.8356 277° West 318 366 17,900 1,736 Climbing Washington Center
Sat 05:25:53 PM 39.5694 -77.9658 288° West 359 413 19,500 1,550 Climbing Washington Center
Sat 05:26:52 PM 39.6064 -78.0939 291° West 378 435 21,000 1,311 Climbing Washington Center
Sat 05:28:24 PM 39.6644 -78.2828 292° West 395 455 22,800 1,184 Climbing Cleveland Center
Sat 05:29:24 PM 39.7025 -78.4056 292° West 402 463 24,000 1,350 Climbing Cleveland Center
Sat 05:30:24 PM 39.7492 -78.5689 290° West 407 468 25,500 1,300 Climbing Cleveland Center
Sat 05:31:24 PM 39.7825 -78.6947 289° West 407 468 26,600 1,150 Climbing Cleveland Center
Sat 05:32:24 PM 39.8222 -78.8342 290° West 407 468 27,800 1,100 Climbing Cleveland Center
Sat 05:33:24 PM 39.8661 -78.9764 292° West 407 468 28,800 750 Climbing Cleveland Center
Sat 05:34:24 PM 39.9078 -79.1217 291° West 417 480 29,300 500 Climbing Cleveland Center
Sat 05:35:24 PM 39.9511 -79.2722 291° West 432 497 29,800 550 Climbing Cleveland Center
Sat 05:36:24 PM 40.0069 -79.4175 297° West 443 510 30,400 600 Climbing Cleveland Center
Sat 05:37:24 PM 40.0792 -79.5603 304° West 455 524 31,000 600 Climbing Cleveland Center
Sat 05:38:24 PM 40.1514 -79.7003 304° West 465 535 31,600 600 Climbing Cleveland Center
Sat 05:39:24 PM 40.2211 -79.8381 304° West 470 541 32,200 650 Climbing Cleveland Center
Sat 05:40:24 PM 40.2928 -79.9789 304° West 470 541 32,900 600 Climbing Cleveland Center
Sat 05:41:24 PM 40.3622 -80.1253 302° West 470 541 33,400 750 Climbing Cleveland Center
Sat 05:42:24 PM 40.4336 -80.2667 304° West 476 548 34,400 1,050 Climbing Cleveland Center
Sat 05:43:24 PM 40.5153 -80.4192 305° West 476 548 35,500 1,000 Climbing Cleveland Center
Sat 05:44:24 PM 40.5819 -80.5503 304° West 453 521 36,400 900 Climbing Cleveland Center
Sat 05:45:24 PM 40.6467 -80.6872 302° West 446 513 37,300 800 Climbing Cleveland Center
Sat 05:46:24 PM 40.7194 -80.8158 307° West 441 507 38,000 550 Climbing Cleveland Center
Sat 05:47:24 PM 40.8108 -80.9261 318° Northwest 435 501 38,400 550 Climbing Cleveland Center
Sat 05:48:24 PM 40.9000 -81.0336 318° Northwest 435 501 39,100 650 Climbing Cleveland Center
Sat 05:49:24 PM 40.9831 -81.1250 320° Northwest 435 501 39,700 450 Climbing Cleveland Center
Sat 05:50:24 PM 41.0869 -81.2031 330° Northwest 430 495 40,000 150 Climbing Cleveland Center
Sat 05:51:24 PM 41.1928 -81.2894 328° Northwest 435 501 40,000  Level Cleveland Center
Sat 05:52:24 PM 41.2964 -81.3764 328° Northwest 441 507 40,000  Level Cleveland Center
Sat 05:53:24 PM 41.4042 -81.4717 326° Northwest 455 524 40,000  Level Cleveland Center
Sat 05:54:24 PM 41.5097 -81.5675 326° Northwest 460 529 40,000  Level Cleveland Center
Sat 05:55:24 PM 41.6150 -81.6581 327° Northwest 460 529 40,000  Level Cleveland Center
Sat 05:56:24 PM 41.7206 -81.7461 328° Northwest 455 524 40,000  Level Cleveland Center
Sat 05:57:24 PM 41.8239 -81.8342 328° Northwest 455 524 40,000  Level Cleveland Center
Sat 05:58:24 PM 41.9311 -81.9283 327° Northwest 450 518 40,000  Level Cleveland Center
Sat 05:59:24 PM 41.9986 -82.0528 306° West 422 486 40,000  Level Cleveland Center
Sat 06:00:24 PM 42.0361 -82.1933 290° West 408 470 40,000  Level Cleveland Center
Sat 06:01:24 PM 42.0633 -82.3367 284° West 388 447 40,000  Level Cleveland Center
Sat 06:02:24 PM 42.0881 -82.4803 283° West 393 452 40,000  Level Cleveland Center
Sat 06:03:24 PM 42.1253 -82.6242 289° West 400 460 40,000  Level Cleveland Center
Sat 06:04:24 PM 42.1517 -82.7706 284° West 405 466 40,000  Level Cleveland Center
Sat 06:05:24 PM 42.1800 -82.9200 284° West 411 473 40,000  Level Cleveland Center
Sat 06:06:24 PM 42.2081 -83.0725 284° West 417 480 40,000  Level Cleveland Center
Sat 06:07:24 PM 42.2417 -83.2478 285° West 429 494 40,000  Level Cleveland Center
Sat 06:08:24 PM 42.2714 -83.3978 285° West 435 501 40,000  Level Cleveland Center
Sat 06:09:24 PM 42.3031 -83.5508 286° West 425 489 40,000  Level Cleveland Center
Sat 06:10:24 PM 42.3344 -83.7067 285° West 425 489 40,000  Level Cleveland Center
Sat 06:11:24 PM 42.3617 -83.8514 284° West 415 478 40,000  Level Cleveland Center
Sat 06:12:24 PM 42.3906 -84.0019 285° West 415 478 40,000  Level Cleveland Center
Sat 06:13:24 PM 42.4172 -84.1525 284° West 415 478 40,000  Level Cleveland Center
Sat 06:14:24 PM 42.4478 -84.3092 285° West 421 484 40,000  Level Cleveland Center
Sat 06:15:36 PM 42.4803 -84.4758 285° West 430 495 40,000  Level Chicago Center
Sat 06:16:37 PM 42.5089 -84.6317 284° West 428 493 40,000  Level Chicago Center
Sat 06:17:39 PM 42.5383 -84.7878 284° West 429 494 40,000  Level Chicago Center
Sat 06:18:40 PM 42.5667 -84.9461 284° West 430 495 40,000  Level Chicago Center
Sat 06:19:42 PM 42.6014 -85.1358 284° West 433 498 40,000 -290 Level Chicago Center
Sat 06:20:44 PM 42.6297 -85.2947 284° West 433 498 39,400 -780 Descending Chicago Center
Sat 06:21:45 PM 42.6733 -85.4439 292° West 430 495 38,400 -976 Descending Chicago Center
Sat 06:22:47 PM 42.7231 -85.5917 295° West 429 494 37,400 -976 Descending Chicago Center
Sat 06:23:48 PM 42.7728 -85.7428 294° West 440 506 36,400 -683 Descending Chicago Center
Sat 06:24:50 PM 42.8242 -85.9025 294° West 455 524 36,000 -195 Descending Chicago Center
Sat 06:25:51 PM 42.8778 -86.0650 294° West 465 535 36,000  Level Chicago Center
Sat 06:26:53 PM 42.9317 -86.2308 294° West 470 541 36,000  Level Chicago Center
Sat 06:27:54 PM 42.9853 -86.3908 295° West 466 536 36,000  Level Chicago Center
Sat 06:28:56 PM 43.0372 -86.5461 295° West 448 516 36,000  Level Chicago Center
Sat 06:29:57 PM 43.0881 -86.7064 294° West 451 519 36,000  Level Chicago Center
Sat 06:30:59 PM 43.1497 -86.9003 294° West 461 531 36,000  Level Chicago Center
Sat 06:32:00 PM 43.2028 -87.0647 294° West 476 548 36,000  Level Chicago Center
Sat 06:33:02 PM 43.2539 -87.2186 295° West 457 526 36,000  Level Chicago Center
Sat 06:34:04 PM 43.3044 -87.3775 294° West 439 505 36,000  Level Chicago Center
Sat 06:35:05 PM 43.3514 -87.5331 293° West 439 505 36,000  Level Chicago Center
Sat 06:36:07 PM 43.4028 -87.6942 294° West 455 524 36,000  Level Chicago Center
Sat 06:37:08 PM 43.4494 -87.8458 293° West 426 490 36,000  Level Chicago Center
Sat 06:38:10 PM 43.4969 -88.0028 293° West 438 504 36,000  Level Chicago Center
Sat 06:39:12 PM 43.5556 -88.1878 294° West 450 518 36,000  Level Chicago Center
Sat 06:40:13 PM 43.6039 -88.3450 293° West 445 512 36,000  Level Chicago Center
Sat 06:41:15 PM 43.6514 -88.5003 293° West 445 512 36,000  Level Chicago Center
Sat 06:42:16 PM 43.6958 -88.6544 292° West 439 505 36,000 -293 Level Chicago Center
Sat 06:43:18 PM 43.7428 -88.8153 292° West 451 519 35,400 -484 Descending Chicago Center
Sat 06:44:20 PM 43.7983 -89.0042 292° West 456 525 35,000 -439 Descending Chicago Center
Sat 06:45:21 PM 43.8467 -89.1692 292° West 459 528 34,500 -488 Descending Chicago Center
Sat 06:46:23 PM 43.8944 -89.3344 292° West 464 534 34,000 -242 Descending Chicago Center
Sat 06:47:25 PM 43.9439 -89.5033 292° West 471 542 34,000  Level Chicago Center
Sat 06:48:26 PM 43.9925 -89.6719 292° West 471 542 34,000  Level Chicago Center
Sat 06:49:28 PM 44.0411 -89.8392 292° West 467 537 34,000  Level Chicago Center
Sat 06:50:29 PM 44.0922 -89.9994 294° West 457 526 34,000  Level Chicago Center
Sat 06:51:34 PM 44.1847 -90.1586 309° West 453 521 34,000 -47 Level Minneapolis Center
Sat 06:52:36 PM 44.2606 -90.2981 307° West 452 520 33,900 -629 Descending Minneapolis Center
Sat 06:53:38 PM 44.3383 -90.4364 308° West 453 521 32,700 -1,220 Descending Minneapolis Center
Sat 06:54:39 PM 44.4142 -90.5758 307° West 451 519 31,400 -1,512 Descending Minneapolis Center
Sat 06:55:41 PM 44.5036 -90.7386 308° West 452 520 29,600 -1,659 Descending Minneapolis Center
Sat 06:56:42 PM 44.5783 -90.8758 307° West 445 512 28,000 -1,707 Descending Minneapolis Center
Sat 06:57:44 PM 44.6522 -91.0125 307° West 429 494 26,100 -1,756 Descending Minneapolis Center
Sat 06:58:45 PM 44.7200 -91.1397 307° West 417 480 24,400 -1,659 Descending Minneapolis Center
Sat 06:59:47 PM 44.7750 -91.2722 300° West 402 463 22,700 -1,645 Descending Minneapolis Center
Sat 07:00:49 PM 44.8144 -91.4161 291° West 396 456 21,000 -1,659 Descending Minneapolis Center
Sat 07:01:50 PM 44.8517 -91.5547 291° West 388 447 19,300 -1,659 Descending Minneapolis Center
Sat 07:02:52 PM 44.8883 -91.6914 291° West 378 435 17,600 -1,659 Descending Minneapolis Center
Sat 07:03:53 PM 44.9250 -91.8258 291° West 372 428 15,900 -1,805 Descending Minneapolis Center
Sat 07:04:55 PM 44.9672 -91.9811 291° West 353 406 13,900 -1,694 Descending Minneapolis Center
Sat 07:05:57 PM 45.0022 -92.1117 291° West 354 407 12,400 -1,366 Descending Minneapolis Center
Sat 07:06:58 PM 45.0353 -92.2358 291° West 340 391 11,100 -634 Descending Minneapolis Center
Sat 07:08:00 PM 45.0372 -92.3664 271° West 344 396 11,100 -49 Level Minneapolis Center
Sat 07:09:01 PM 45.0175 -92.4958 258° West 337 388 11,000 -49 Descending Minneapolis Center
Sat 07:10:03 PM 44.9967 -92.6244 257° West 337 388 11,000  Level Minneapolis Center
Sat 07:11:05 PM 44.9711 -92.7792 257° West 338 389 11,000 -439 Level Minneapolis Center
Sat 07:12:06 PM 44.9531 -92.8917 257° West 294 338 10,100 -1,171 Descending Minneapolis Center
Sat 07:13:08 PM 44.9369 -92.9917 257° West 264 304 8,600 -1,024 Descending Minneapolis Center
Sat 07:14:09 PM 44.9369 -93.0817 270° West 240 276 8,000 -488 Descending Minneapolis Center
Sat 07:15:11 PM 44.9767 -93.1550 307° West 237 273 7,600 -927 Descending Minneapolis Center
Sat 07:16:12 PM 45.0164 -93.2297 307° West 239 275 6,100 -1,317 Descending Minneapolis Center
Sat 07:17:14 PM 45.0631 -93.3181 307° West 237 273 4,900 -1,024 Descending Minneapolis Center
Sat 07:18:15 PM 45.0764 -93.3850 286° West 188 216 4,000 -439 Descending Minneapolis Center
Sat 07:19:17 PM 45.0336 -93.3911 186° South 160 184 4,000 -341 Level Minneapolis Center
Sat 07:20:18 PM 44.9936 -93.3631 154° Southeast 163 188 3,300 -488 Descending Minneapolis Center
Sat 07:21:20 PM 44.9572 -93.3503 166° South 129 148 3,000 -390 Descending Minneapolis Center
Sat 07:22:21 PM 44.9333 -93.3133 132° Southeast 135 155 2,500 -634 Descending Minneapolis Center
Sat 07:23:23 PM 44.9144 -93.2700 122° Southeast 130 150 1,700 -774 Descending Minneapolis Center
Sat 07:25:00 PM 44.8820 -93.2218 245° Southwest  Level Estimated
Sat 07:32:00 PM 44.8820 -93.2218 245° Southwest  Level Estimated

Login

Don't have an account? Register now (free) for customized features, flight alerts, and more!